Time;durP1;ratioP1;P1;durP2;ratioP2;P2;SDS_P1;SDS_P2;PMS_P1;PMS_P2;Temp;Humidity;BMP_temperature;BMP_pressure;BME280_temperature;BME280_humidity;BME280_pressure;Samples;Min_cycle;Max_cycle;Signal;HPM_P1;HPM_P2
2023/07/14 00:01:59;;;;;;;2.97;0.80;;;;;;;18.79;88.30;101027.94;4827354;29;20050;-62
2023/07/14 00:04:31;;;;;;;1.52;0.95;;;;;;;18.80;89.07;101034.97;4830873;29;20510;-63
2023/07/14 00:06:57;;;;;;;0.90;0.75;;;;;;;18.83;88.58;101028.69;4826673;29;20061;-63
2023/07/14 00:09:25;;;;;;;1.23;0.82;;;;;;;18.83;89.17;101020.50;4829635;29;20040;-61
2023/07/14 00:11:52;;;;;;;1.33;0.90;;;;;;;18.76;88.95;101023.28;4824475;29;20046;-63
2023/07/14 00:14:17;;;;;;;0.85;0.70;;;;;;;18.68;89.29;101026.47;4820338;29;20046;-62
2023/07/14 00:16:44;;;;;;;1.05;0.77;;;;;;;18.73;89.40;101028.78;4822583;29;20061;-62
2023/07/14 00:19:15;;;;;;;1.70;0.98;;;;;;;18.74;88.67;101033.84;4827552;29;20077;-63
2023/07/14 00:21:40;;;;;;;1.67;0.85;;;;;;;18.60;89.25;101030.44;4848219;29;20053;-62
2023/07/14 00:24:15;;;;;;;1.70;1.00;;;;;;;18.47;89.85;101032.06;4882983;29;20093;-62
2023/07/14 00:26:42;;;;;;;1.17;0.57;;;;;;;18.41;89.75;101023.47;4875640;29;20087;-63
2023/07/14 00:29:34;;;;;;;1.25;0.90;;;;;;;18.45;89.97;101018.03;4876639;29;20508;-62
2023/07/14 00:32:01;;;;;;;2.47;0.85;;;;;;;18.44;89.87;101022.72;4857976;29;20048;-63
2023/07/14 00:34:26;;;;;;;1.15;0.82;;;;;;;18.50;89.92;101020.34;4880491;29;20542;-62
2023/07/14 00:36:52;;;;;;;1.23;0.93;;;;;;;18.36;90.17;101021.19;4871178;29;20033;-63
2023/07/14 00:39:17;;;;;;;0.68;0.60;;;;;;;18.33;90.22;101021.22;4938786;28;20057;-62
2023/07/14 00:41:44;;;;;;;0.70;0.68;;;;;;;18.25;90.30;101014.25;4975045;28;20094;-61
2023/07/14 00:44:16;;;;;;;3.70;0.98;;;;;;;18.35;89.95;101018.88;4960835;28;20064;-63
2023/07/14 00:46:44;;;;;;;0.88;0.60;;;;;;;18.34;90.39;101025.47;4957707;28;20027;-64
2023/07/14 00:49:20;;;;;;;0.90;0.73;;;;;;;18.36;90.05;101018.47;4965769;28;20027;-63
2023/07/14 00:51:46;;;;;;;0.80;0.80;;;;;;;18.34;89.94;101014.56;4960544;28;20122;-63
2023/07/14 00:54:28;;;;;;;0.95;0.68;;;;;;;18.24;90.63;101018.13;4966907;28;20038;-61
2023/07/14 00:56:56;;;;;;;1.13;0.82;;;;;;;18.17;90.39;101024.41;4945087;28;20043;-62
2023/07/14 00:59:29;;;;;;;1.30;0.90;;;;;;;18.11;90.67;101015.09;4962219;28;20035;-62
2023/07/14 01:02:10;;;;;;;1.85;0.80;;;;;;;18.07;91.37;101013.53;4954536;28;20041;-63
2023/07/14 01:04:40;;;;;;;1.48;0.85;;;;;;;18.11;91.19;101006.13;4967734;28;20120;-62
2023/07/14 01:07:08;;;;;;;1.02;0.85;;;;;;;18.11;90.78;101011.56;4961407;28;20070;-64
2023/07/14 01:09:34;;;;;;;1.30;1.10;;;;;;;18.15;90.99;101012.34;4956392;28;20023;-62
2023/07/14 01:12:03;;;;;;;1.40;0.93;;;;;;;18.16;90.94;101016.59;4950958;28;20421;-63
2023/07/14 01:14:33;;;;;;;1.05;0.63;;;;;;;18.11;91.07;101017.03;4968221;28;20038;-63
2023/07/14 01:17:01;;;;;;;6.28;1.73;;;;;;;18.13;91.41;101006.50;4964960;28;20420;-62
2023/07/14 01:19:48;;;;;;;1.45;0.98;;;;;;;18.15;90.90;101009.59;4981643;28;20027;-63
2023/07/14 01:22:33;;;;;;;0.90;0.60;;;;;;;18.01;91.65;101011.22;4961051;28;20134;-64
2023/07/14 01:25:23;;;;;;;0.68;0.68;;;;;;;17.87;91.92;101005.84;4961467;28;20042;-63
2023/07/14 01:27:49;;;;;;;0.88;0.77;;;;;;;17.85;91.75;101012.84;4947791;28;20043;-64
2023/07/14 01:30:15;;;;;;;1.00;0.73;;;;;;;17.80;92.15;101011.31;4968141;28;20019;-62
2023/07/14 01:32:47;;;;;;;1.77;0.90;;;;;;;17.96;91.91;101013.59;4973766;28;20529;-62
2023/07/14 01:35:15;;;;;;;1.05;0.80;;;;;;;17.95;91.24;101010.09;4961946;28;20038;-63
2023/07/14 01:37:40;;;;;;;1.95;0.90;;;;;;;17.92;91.22;101015.56;4956214;28;20039;-61
2023/07/14 01:40:12;;;;;;;0.93;0.65;;;;;;;17.89;91.33;100998.03;4958789;28;20050;-62
2023/07/14 01:42:39;;;;;;;;;;;;;;;17.86;91.04;101007.00;4974762;28;20372;-63
2023/07/14 01:45:13;;;;;;;2.13;0.68;;;;;;;17.85;91.15;101012.84;4954192;28;20074;-63
2023/07/14 01:47:42;;;;;;;0.60;0.60;;;;;;;17.84;90.52;101014.03;4960136;28;20161;-62
2023/07/14 01:50:17;;;;;;;1.20;0.98;;;;;;;17.79;91.17;101004.31;4965583;28;20039;-64
2023/07/14 01:52:45;;;;;;;1.40;0.90;;;;;;;17.80;90.87;100997.69;4975315;28;20063;-63
2023/07/14 01:55:14;;;;;;;3.17;1.08;;;;;;;17.70;91.95;101005.88;4956911;28;20097;-64
2023/07/14 01:57:43;;;;;;;1.23;0.55;;;;;;;17.72;91.84;100998.09;4953146;28;20118;-62
2023/07/14 02:00:12;;;;;;;0.80;0.60;;;;;;;17.76;91.51;101005.09;4954614;28;20039;-63
2023/07/14 02:02:42;;;;;;;1.23;0.70;;;;;;;17.67;91.11;101010.16;4951027;28;20096;-63
2023/07/14 02:05:33;;;;;;;0.80;0.70;;;;;;;17.62;92.17;101010.59;4972177;28;20042;-65
2023/07/14 02:08:05;;;;;;;1.27;0.60;;;;;;;17.71;91.47;101007.47;4966887;28;20043;-63
2023/07/14 02:10:32;;;;;;;1.45;1.15;;;;;;;17.70;90.89;101014.84;4956509;28;20408;-63
2023/07/14 02:12:58;;;;;;;0.80;0.80;;;;;;;17.72;91.11;100998.09;4954830;28;20039;-63
2023/07/14 02:15:28;;;;;;;3.33;0.80;;;;;;;17.71;90.76;101008.22;4973347;28;20033;-63
2023/07/14 02:18:15;;;;;;;1.05;0.70;;;;;;;17.78;90.73;101007.44;4948314;28;20038;-62
2023/07/14 02:20:44;;;;;;;0.80;0.55;;;;;;;17.69;91.00;101007.81;4900243;29;20044;-63
2023/07/14 02:23:16;;;;;;;1.13;0.68;;;;;;;17.66;90.81;101010.56;4922416;29;20055;-62
2023/07/14 02:25:46;;;;;;;1.10;0.80;;;;;;;17.68;91.04;101003.56;4910308;29;20457;-63
2023/07/14 02:28:13;;;;;;;1.02;0.90;;;;;;;17.63;90.88;101008.66;4904582;29;20107;-63
2023/07/14 02:30:45;;;;;;;2.92;0.90;;;;;;;17.53;91.95;101009.44;4907320;29;20063;-63
2023/07/14 02:33:38;;;;;;;0.90;0.70;;;;;;;17.63;91.54;101003.97;4913574;29;20417;-62
2023/07/14 02:36:09;;;;;;;2.65;1.40;;;;;;;17.62;91.22;101013.31;4921974;29;20469;-63
2023/07/14 02:38:36;;;;;;;0.80;0.70;;;;;;;17.52;91.62;101016.81;4901540;29;20035;-64
2023/07/14 02:41:18;;;;;;;1.42;0.80;;;;;;;17.56;91.86;101008.63;4919237;29;20524;-65
2023/07/14 02:43:48;;;;;;;1.25;0.82;;;;;;;17.65;91.37;101006.31;4915440;29;20071;-64
2023/07/14 02:46:38;;;;;;;1.37;0.83;;;;;;;17.53;91.31;100996.59;4906919;29;20095;-64
2023/07/14 02:49:04;;;;;;;1.70;0.93;;;;;;;17.58;91.22;101004.38;4912650;29;20036;-64
2023/07/14 02:51:30;;;;;;;0.73;0.65;;;;;;;17.60;91.06;100999.31;4915909;29;20438;-65
2023/07/14 02:53:55;;;;;;;1.05;0.75;;;;;;;17.64;91.04;100994.63;4920304;29;20040;-64
2023/07/14 02:56:21;;;;;;;2.10;1.23;;;;;;;17.54;91.29;100998.16;4901979;29;20061;-64
2023/07/14 02:58:49;;;;;;;0.82;0.77;;;;;;;17.53;91.28;101004.78;4966838;28;20048;-63
2023/07/14 03:01:16;;;;;;;0.73;0.45;;;;;;;17.49;91.55;100995.84;4951295;28;20517;-63
2023/07/14 03:03:44;;;;;;;1.88;0.73;;;;;;;17.61;90.86;101005.53;4946475;28;20122;-64
2023/07/14 03:06:31;;;;;;;0.93;0.75;;;;;;;17.53;91.14;101002.06;4952216;28;20039;-65
2023/07/14 03:08:57;;;;;;;1.70;1.10;;;;;;;17.50;91.16;101008.28;4912210;29;20063;-64
2023/07/14 03:11:23;;;;;;;1.80;0.60;;;;;;;17.47;91.35;100998.16;4911644;29;20047;-65
2023/07/14 03:13:48;;;;;;;1.95;1.38;;;;;;;17.45;91.51;101003.22;4904841;29;20055;-65
2023/07/14 03:16:15;;;;;;;1.08;0.90;;;;;;;17.48;91.51;101002.44;4914515;29;20047;-63
2023/07/14 03:18:40;;;;;;;1.80;1.05;;;;;;;17.51;90.86;101000.88;4919646;29;20098;-64
2023/07/14 03:21:05;;;;;;;3.25;1.10;;;;;;;17.52;90.79;100995.03;4915206;29;21831;-63
2023/07/14 03:23:32;;;;;;;1.05;0.82;;;;;;;17.43;91.40;100999.31;4912018;29;20035;-64
2023/07/14 03:26:05;;;;;;;1.38;1.02;;;;;;;17.45;91.79;100997.75;4915568;29;20054;-63
2023/07/14 03:28:30;;;;;;;1.00;0.70;;;;;;;17.58;90.60;100992.69;4904722;29;20044;-64
2023/07/14 03:30:56;;;;;;;1.17;0.90;;;;;;;17.58;90.74;100993.47;4915211;29;20522;-62
2023/07/14 03:33:21;;;;;;;2.22;0.85;;;;;;;17.56;90.99;100995.81;4919791;29;20117;-64
2023/07/14 03:35:47;;;;;;;2.60;1.10;;;;;;;17.54;90.57;100989.97;4912678;29;20040;-62
2023/07/14 03:38:13;;;;;;;1.48;0.73;;;;;;;17.49;91.65;100992.34;4919232;29;20087;-63
2023/07/14 03:40:39;;;;;;;1.13;0.85;;;;;;;17.54;91.33;100995.41;4917549;29;20414;-63
2023/07/14 03:43:04;;;;;;;1.17;1.00;;;;;;;17.44;91.77;100987.25;4903600;29;20044;-62
2023/07/14 03:45:31;;;;;;;5.55;1.30;;;;;;;17.36;92.67;100996.63;4932416;28;20043;-63
2023/07/14 03:47:57;;;;;;;1.15;0.65;;;;;;;17.40;92.90;100994.66;4966444;28;20039;-63
2023/07/14 03:50:23;;;;;;;2.03;1.35;;;;;;;17.44;92.31;100992.72;4959910;28;20022;-64
2023/07/14 03:52:48;;;;;;;1.45;1.10;;;;;;;17.39;92.56;100988.44;4957189;28;20055;-64
2023/07/14 03:55:14;;;;;;;1.23;0.85;;;;;;;17.43;92.70;100997.38;4966686;28;20023;-64
2023/07/14 03:57:40;;;;;;;1.15;0.75;;;;;;;17.52;92.47;101008.66;4955756;28;20047;-63
2023/07/14 04:00:13;;;;;;;2.00;1.30;;;;;;;17.58;92.21;101006.31;4957085;28;20027;-63
2023/07/14 04:02:45;;;;;;;2.78;1.10;;;;;;;17.52;92.34;101000.47;4948537;28;20046;-64
2023/07/14 04:05:12;;;;;;;0.95;0.88;;;;;;;17.52;92.57;101003.22;4952334;28;20030;-64
2023/07/14 04:07:40;;;;;;;1.27;1.00;;;;;;;17.62;92.17;100998.91;4953574;28;20038;-64
2023/07/14 04:10:06;;;;;;;1.92;1.10;;;;;;;17.56;92.53;100998.53;4958493;28;20153;-63
2023/07/14 04:12:33;;;;;;;1.33;1.08;;;;;;;17.58;92.18;101004.38;4958313;28;20046;-64
2023/07/14 04:14:58;;;;;;;2.00;1.10;;;;;;;17.50;93.27;101007.50;4967522;28;20053;-64
2023/07/14 04:17:24;;;;;;;1.33;0.90;;;;;;;17.51;93.43;101007.13;4954194;28;20031;-64
2023/07/14 04:19:50;;;;;;;2.85;1.23;;;;;;;17.54;93.52;101024.59;4962109;28;20815;-64
2023/07/14 04:22:17;;;;;;;1.27;1.05;;;;;;;17.52;93.36;101022.28;4954033;28;20170;-64
2023/07/14 04:24:43;;;;;;;1.60;1.20;;;;;;;17.51;93.63;101019.94;4965293;28;20117;-63
2023/07/14 04:27:08;;;;;;;1.15;1.05;;;;;;;17.32;94.61;101018.41;4948954;28;20474;-63
2023/07/14 04:29:34;;;;;;;1.73;1.48;;;;;;;17.48;93.85;101012.53;4968847;28;20081;-63
2023/07/14 04:31:59;;;;;;;2.00;1.30;;;;;;;17.51;94.12;101009.06;4947354;28;20055;-64
2023/07/14 04:34:29;;;;;;;1.60;1.38;;;;;;;17.68;93.42;101017.19;4964539;28;20027;-64
2023/07/14 04:36:55;;;;;;;1.55;0.90;;;;;;;17.86;92.26;101008.97;4950546;28;20050;-61
2023/07/14 04:39:23;;;;;;;2.03;1.15;;;;;;;17.72;93.27;101014.44;4955534;28;20031;-64
2023/07/14 04:41:49;;;;;;;1.52;1.20;;;;;;;17.67;92.68;101018.34;4943180;28;20114;-62
2023/07/14 04:44:16;;;;;;;1.35;1.15;;;;;;;17.71;93.41;101021.06;4959577;28;20033;-63
2023/07/14 04:46:43;;;;;;;2.10;1.40;;;;;;;17.52;93.92;101027.72;4959414;28;20035;-64
2023/07/14 04:49:10;;;;;;;1.60;1.35;;;;;;;17.41;94.26;101015.25;4944354;28;20035;-63
2023/07/14 04:51:36;;;;;;;1.85;1.20;;;;;;;17.42;95.57;101020.31;4946536;28;20098;-64
2023/07/14 04:54:02;;;;;;;1.70;1.00;;;;;;;17.58;95.01;101019.94;4962005;28;20399;-64
2023/07/14 04:56:29;;;;;;;2.38;1.20;;;;;;;17.77;94.47;101017.53;4962891;28;20050;-64
2023/07/14 04:59:15;;;;;;;2.97;1.30;;;;;;;17.86;94.61;101020.66;4952513;28;20067;-64
2023/07/14 05:02:00;;;;;;;2.78;1.27;;;;;;;17.78;94.52;101018.31;4886631;29;20080;-63
2023/07/14 05:04:29;;;;;;;2.65;1.42;;;;;;;17.80;94.84;101019.50;4843592;29;20101;-64
2023/07/14 05:06:54;;;;;;;1.48;1.35;;;;;;;18.06;93.79;101020.19;4846580;29;20123;-64
2023/07/14 05:09:20;;;;;;;2.75;1.50;;;;;;;17.87;95.24;101015.94;4852333;29;20053;-64
2023/07/14 05:12:07;;;;;;;2.20;1.33;;;;;;;17.87;95.62;101019.47;4841694;29;20621;-63
2023/07/14 05:14:32;;;;;;;4.13;1.35;;;;;;;18.19;94.64;101008.44;4829991;29;20042;-62
2023/07/14 05:16:57;;;;;;;2.10;1.55;;;;;;;18.29;94.65;101010.28;4836038;29;20526;-62
2023/07/14 05:19:24;;;;;;;2.67;1.50;;;;;;;18.41;94.72;101014.53;4822265;29;20084;-63
2023/07/14 05:21:52;;;;;;;2.50;1.40;;;;;;;18.73;94.51;101026.84;4831814;29;20118;-63
2023/07/14 05:24:17;;;;;;;2.03;1.63;;;;;;;19.22;92.82;101022.16;4830930;29;20117;-62
2023/07/14 05:26:42;;;;;;;4.82;2.45;;;;;;;19.74;90.42;101023.59;4828236;29;20148;-62
2023/07/14 05:29:09;;;;;;;2.63;1.85;;;;;;;20.19;88.66;101027.00;4827932;29;20088;-63
2023/07/14 05:31:34;;;;;;;3.65;1.98;;;;;;;20.29;83.29;101034.28;4824498;29;20050;-62
2023/07/14 05:33:59;;;;;;;3.33;1.88;;;;;;;20.17;83.86;101023.88;4829901;29;20102;-64
2023/07/14 05:36:25;;;;;;;2.42;1.45;;;;;;;20.27;83.90;101031.16;4834939;29;20126;-62
2023/07/14 05:38:50;;;;;;;2.33;1.40;;;;;;;20.65;83.17;101036.09;4857057;29;20140;-63
2023/07/14 05:41:16;;;;;;;2.20;1.67;;;;;;;20.72;81.45;101035.22;4895862;29;20055;-63
2023/07/14 05:43:41;;;;;;;2.90;1.40;;;;;;;20.97;80.96;101045.78;4936211;29;20046;-64
2023/07/14 05:46:07;;;;;;;1.60;1.40;;;;;;;21.18;80.87;101040.78;4933383;29;20035;-64
2023/07/14 05:48:32;;;;;;;2.95;1.52;;;;;;;21.34;80.42;101038.16;4943020;29;20588;-62
2023/07/14 05:50:58;;;;;;;3.22;1.88;;;;;;;21.54;78.86;101040.94;4931914;28;20044;-64
2023/07/14 05:53:23;;;;;;;2.45;1.48;;;;;;;21.12;78.69;101028.75;4958609;28;20035;-64
2023/07/14 05:55:49;;;;;;;2.05;1.40;;;;;;;21.27;79.20;101042.97;4972238;28;20054;-64
2023/07/14 05:58:15;;;;;;;1.52;1.40;;;;;;;21.58;78.23;101036.16;4964368;28;20038;-64
2023/07/14 06:00:42;;;;;;;2.10;1.38;;;;;;;21.38;78.19;101044.34;4960043;28;20043;-63
2023/07/14 06:03:13;;;;;;;2.10;1.48;;;;;;;21.40;78.62;101033.75;4952017;28;20035;-62
2023/07/14 06:05:38;;;;;;;;;;;;;;;21.19;78.64;101036.84;4971733;28;20039;-64
2023/07/14 06:08:04;;;;;;;4.00;1.48;;;;;;;21.21;79.44;101031.72;4958829;28;19922;-64
2023/07/14 06:10:29;;;;;;;2.58;1.35;;;;;;;21.49;80.55;101033.19;4955324;28;20043;-63
2023/07/14 06:12:55;;;;;;;2.13;1.45;;;;;;;21.58;78.23;101034.16;4949059;28;20036;-63
2023/07/14 06:15:20;;;;;;;2.10;1.30;;;;;;;21.61;80.00;101035.31;4959979;28;20048;-63
2023/07/14 06:17:46;;;;;;;2.05;1.52;;;;;;;21.41;78.56;101034.50;4962364;28;20023;-63
2023/07/14 06:20:11;;;;;;;3.83;1.75;;;;;;;21.35;79.68;101025.22;4952344;28;20118;-63
2023/07/14 06:22:38;;;;;;;3.65;1.60;;;;;;;21.33;80.16;101022.88;4964411;28;20027;-64
2023/07/14 06:25:04;;;;;;;1.65;1.40;;;;;;;21.28;80.02;101022.59;4985862;23;20046;-67
2023/07/14 06:27:33;;;;;;;2.45;1.17;;;;;;;21.16;80.96;101026.72;4974173;28;20045;-66
2023/07/14 06:29:59;;;;;;;4.65;1.42;;;;;;;21.58;81.94;101025.94;4986367;28;20084;-66
2023/07/14 06:32:25;;;;;;;2.80;1.35;;;;;;;22.02;80.22;101026.69;4987478;28;20424;-65
2023/07/14 06:34:50;;;;;;;3.38;1.67;;;;;;;22.38;78.35;101032.97;4976036;28;20035;-65
2023/07/14 06:37:16;;;;;;;1.90;1.10;;;;;;;22.48;77.90;101020.97;4952107;28;20080;-66
2023/07/14 06:39:41;;;;;;;1.52;1.42;;;;;;;22.45;78.10;101025.34;4980745;28;20054;-67
2023/07/14 06:42:07;;;;;;;2.25;1.50;;;;;;;22.23;78.26;101023.50;4970309;28;20532;-64
2023/07/14 06:44:33;;;;;;;2.58;1.55;;;;;;;22.22;76.11;101019.97;4966949;28;20041;-66
2023/07/14 06:46:58;;;;;;;2.80;1.75;;;;;;;22.19;75.74;101022.81;4976893;28;20038;-65
2023/07/14 06:49:24;;;;;;;3.15;1.95;;;;;;;21.98;76.04;101026.00;4969622;28;20565;-66
2023/07/14 06:51:49;;;;;;;6.55;1.65;;;;;;;21.07;80.18;101017.50;4972785;28;20034;-66
2023/07/14 06:54:15;;;;;;;4.13;1.80;;;;;;;21.23;82.57;101015.66;4980873;28;20446;-65
2023/07/14 06:56:40;;;;;;;3.30;2.00;;;;;;;22.05;79.10;101032.09;4982691;28;20026;-66
2023/07/14 06:59:06;;;;;;;3.53;1.52;;;;;;;22.40;77.57;101036.06;4981976;28;20034;-65
2023/07/14 07:01:32;;;;;;;3.88;1.60;;;;;;;22.81;76.35;101038.31;4970586;28;20050;-64
2023/07/14 07:03:58;;;;;;;2.40;1.55;;;;;;;23.11;74.78;101035.22;4974147;28;20049;-66
2023/07/14 07:06:24;;;;;;;2.72;1.40;;;;;;;23.06;73.25;101039.25;4968215;28;20033;-64
2023/07/14 07:08:50;;;;;;;2.47;1.42;;;;;;;23.29;74.11;101032.78;4959894;28;20035;-67
2023/07/14 07:11:16;;;;;;;2.45;1.20;;;;;;;23.60;73.74;101044.94;4969614;28;20045;-64
2023/07/14 07:13:41;;;;;;;2.08;1.27;;;;;;;23.72;72.68;101029.69;4963238;28;20066;-64
2023/07/14 07:16:06;;;;;;;3.72;1.45;;;;;;;23.93;72.04;101035.38;4961896;28;20038;-65
2023/07/14 07:18:33;;;;;;;2.50;1.60;;;;;;;23.79;69.19;101027.50;4962304;28;20077;-66
2023/07/14 07:20:59;;;;;;;1.80;1.25;;;;;;;23.29;70.91;101030.03;4957873;28;20042;-65
2023/07/14 07:23:25;;;;;;;2.50;1.48;;;;;;;23.46;71.64;101034.31;4956213;28;20058;-65
2023/07/14 07:25:53;;;;;;;2.55;1.45;;;;;;;23.58;69.87;101033.59;4958525;28;20493;-65
2023/07/14 07:28:19;;;;;;;1.90;1.40;;;;;;;23.08;71.29;101028.59;4961592;28;20034;-64
2023/07/14 07:30:45;;;;;;;2.47;1.25;;;;;;;23.42;73.73;101021.88;4981697;28;20120;-64
2023/07/14 07:33:10;;;;;;;1.45;1.15;;;;;;;23.75;71.79;101024.09;4963419;28;20412;-64
2023/07/14 07:35:38;;;;;;;2.72;1.50;;;;;;;24.10;70.73;101023.09;4954833;28;20036;-64
2023/07/14 07:38:03;;;;;;;3.90;1.23;;;;;;;23.98;69.54;101014.81;4955169;28;20043;-64
2023/07/14 07:40:29;;;;;;;1.40;1.02;;;;;;;24.48;68.50;101009.38;4977449;28;20368;-63
2023/07/14 07:42:54;;;;;;;1.30;0.75;;;;;;;24.57;66.73;101014.22;4963672;28;20043;-64
2023/07/14 07:45:20;;;;;;;2.40;1.17;;;;;;;24.89;66.53;101014.75;4985216;28;20026;-64
2023/07/14 07:47:45;;;;;;;2.15;1.13;;;;;;;24.96;66.04;101014.53;4973906;28;20422;-65
2023/07/14 07:50:11;;;;;;;3.08;1.15;;;;;;;24.90;63.39;101015.53;4972198;28;20047;-64
2023/07/14 07:52:36;;;;;;;2.22;1.23;;;;;;;24.39;67.45;101020.28;4982520;28;20022;-65
2023/07/14 07:55:03;;;;;;;3.38;1.40;;;;;;;24.86;67.00;101018.41;4969188;28;20082;-68
2023/07/14 07:57:28;;;;;;;1.58;1.20;;;;;;;25.15;66.44;101015.47;4963899;28;20026;-63
2023/07/14 07:59:56;;;;;;;2.75;1.48;;;;;;;24.79;63.92;101024.16;4972429;28;20621;-64
2023/07/14 08:02:22;;;;;;;2.13;1.10;;;;;;;25.16;66.02;101019.81;4959133;28;20041;-65
2023/07/14 08:04:49;;;;;;;5.93;1.48;;;;;;;25.43;63.03;101028.34;4963381;28;20039;-64
2023/07/14 08:07:15;;;;;;;3.00;0.98;;;;;;;25.55;61.65;101024.75;4966470;28;20041;-66
2023/07/14 08:09:41;;;;;;;2.00;1.42;;;;;;;25.21;60.99;101019.22;4980469;28;20022;-65
2023/07/14 08:12:07;;;;;;;1.83;1.02;;;;;;;25.42;60.67;101018.50;4970034;28;20062;-65
2023/07/14 08:14:52;;;;;;;1.48;1.00;;;;;;;25.60;61.98;101015.13;4966756;28;20047;-66
2023/07/14 08:17:17;;;;;;;1.00;0.88;;;;;;;25.86;60.16;101017.31;4972926;28;20109;-64
2023/07/14 08:19:44;;;;;;;2.47;1.10;;;;;;;25.97;59.21;101016.16;4971568;28;20106;-67
2023/07/14 08:22:09;;;;;;;1.20;1.00;;;;;;;25.80;58.15;101008.06;4967795;28;20055;-65
2023/07/14 08:24:35;;;;;;;1.27;0.98;;;;;;;25.95;59.52;101008.31;4951352;28;20111;-66
2023/07/14 08:27:00;;;;;;;0.73;0.73;;;;;;;25.97;59.46;101011.41;4950416;28;20049;-66
2023/07/14 08:29:25;;;;;;;1.20;0.85;;;;;;;26.15;58.92;101019.81;4977096;28;20022;-66
2023/07/14 08:31:51;;;;;;;2.35;0.75;;;;;;;26.16;58.77;101015.06;4958279;28;20042;-66
2023/07/14 08:34:16;;;;;;;1.33;0.90;;;;;;;26.47;57.31;101008.31;4970457;28;20039;-66
2023/07/14 08:36:42;;;;;;;1.30;1.05;;;;;;;26.03;54.92;101009.59;4956972;28;20088;-65
2023/07/14 08:39:07;;;;;;;1.48;0.82;;;;;;;25.82;56.74;101010.41;4971361;28;20070;-65
2023/07/14 08:41:54;;;;;;;2.53;0.90;;;;;;;25.71;58.95;101010.00;4954644;28;20026;-66
2023/07/14 08:45:08;;;;;;;3.38;0.88;;;;;;;26.28;58.99;101009.44;4946032;28;20062;-67
2023/07/14 08:48:05;;;;;;;1.60;1.00;;;;;;;26.63;56.99;101010.81;4934404;28;20046;-66
2023/07/14 08:50:31;;;;;;;1.05;0.80;;;;;;;26.83;55.64;101015.19;4941105;28;20050;-65
2023/07/14 08:53:04;;;;;;;2.42;0.65;;;;;;;27.16;54.60;101019.69;4939452;28;20424;-66
2023/07/14 08:55:35;;;;;;;1.38;0.90;;;;;;;27.29;54.09;101009.25;4940191;28;20173;-65
2023/07/14 08:58:10;;;;;;;1.90;0.70;;;;;;;27.66;53.41;101010.06;4945819;28;20617;-65
2023/07/14 09:00:42;;;;;;;1.25;0.73;;;;;;;27.78;52.97;101011.13;4944381;28;20455;-64
2023/07/14 09:03:16;;;;;;;0.52;0.50;;;;;;;27.93;51.81;101009.25;4959628;28;20054;-66
2023/07/14 09:05:50;;;;;;;0.30;0.30;;;;;;;28.04;50.41;100996.47;4931569;28;20072;-66
2023/07/14 09:08:16;;;;;;;2.78;0.70;;;;;;;28.16;49.54;100998.28;4942167;28;20503;-66
2023/07/14 09:11:30;;;;;;;2.90;0.52;;;;;;;28.09;48.79;101009.69;4935413;28;20026;-66
2023/07/14 09:14:02;;;;;;;1.58;0.52;;;;;;;27.65;50.13;101000.19;4870919;29;20606;-67
2023/07/14 09:16:31;;;;;;;2.03;0.80;;;;;;;27.72;52.41;100994.34;4935868;28;20058;-66
2023/07/14 09:19:20;;;;;;;0.85;0.47;;;;;;;28.14;50.46;101000.75;4949274;28;20073;-66
2023/07/14 09:21:55;;;;;;;4.30;0.77;;;;;;;28.10;49.30;100999.38;4946063;28;20043;-67
2023/07/14 09:24:53;;;;;;;0.90;0.80;;;;;;;28.21;48.45;100994.09;4973898;28;20117;-67
2023/07/14 09:27:25;;;;;;;0.77;0.45;;;;;;;27.95;48.80;101001.25;4935487;28;20046;-66
2023/07/14 09:29:51;;;;;;;2.25;0.47;;;;;;;27.27;49.95;100999.91;4941550;28;20540;-66
2023/07/14 09:32:26;;;;;;;1.95;0.60;;;;;;;27.46;51.50;100987.63;4940671;28;20556;-65
2023/07/14 09:34:58;;;;;;;1.48;0.82;;;;;;;27.69;51.46;100989.75;4927282;28;20047;-65
2023/07/14 09:37:32;;;;;;;2.85;0.65;;;;;;;27.97;50.25;100996.78;4934017;28;20055;-65
2023/07/14 09:40:17;;;;;;;1.08;0.68;;;;;;;28.29;48.50;101000.84;4935967;28;20513;-66
2023/07/14 09:42:48;;;;;;;1.77;0.80;;;;;;;27.86;48.39;101002.00;4936364;28;20625;-64
2023/07/14 09:45:19;;;;;;;1.52;0.75;;;;;;;27.67;49.87;100989.44;4932798;28;20234;-65
2023/07/14 09:47:48;;;;;;;1.00;0.70;;;;;;;27.86;49.94;100990.94;4943016;28;20051;-65
2023/07/14 09:50:17;;;;;;;1.50;0.60;;;;;;;27.41;49.12;100989.00;4938899;28;20403;-66
2023/07/14 09:52:56;;;;;;;1.20;0.40;;;;;;;26.99;49.94;100984.47;4932694;28;20134;-65
2023/07/14 09:55:23;;;;;;;0.90;0.70;;;;;;;26.94;50.10;100987.88;4945099;28;20118;-65
2023/07/14 09:57:57;;;;;;;0.65;0.57;;;;;;;27.02;51.44;100981.59;4947839;28;20055;-66
2023/07/14 10:00:27;;;;;;;0.82;0.50;;;;;;;26.77;52.41;100979.09;4928109;28;20043;-63
2023/07/14 10:03:28;;;;;;;1.40;0.50;;;;;;;26.58;51.33;100982.97;4909932;29;20381;-64
2023/07/14 10:06:05;;;;;;;1.00;0.55;;;;;;;26.89;52.25;100980.94;4961137;28;20419;-65
2023/07/14 10:08:54;;;;;;;0.52;0.52;;;;;;;27.10;51.76;100973.75;4963998;28;20027;-67
2023/07/14 10:11:24;;;;;;;1.10;0.80;;;;;;;27.45;51.17;100969.47;4924063;28;20078;-65
2023/07/14 10:14:16;;;;;;;0.73;0.53;;;;;;;27.23;49.58;100966.84;4936991;28;20421;-66
2023/07/14 10:16:43;;;;;;;;;;;;;;;26.87;48.89;100960.53;4944295;28;20126;-65
2023/07/14 10:19:18;;;;;;;0.65;0.60;;;;;;;26.63;50.77;100963.84;4927115;28;19914;-66
2023/07/14 10:22:04;;;;;;;1.27;0.60;;;;;;;26.28;50.53;100951.44;4945009;28;20067;-65
2023/07/14 10:24:31;;;;;;;0.50;0.50;;;;;;;26.30;52.30;100942.69;4947840;28;20041;-66
2023/07/14 10:27:05;;;;;;;4.43;0.70;;;;;;;26.23;51.92;100937.44;4941816;28;20468;-66
2023/07/14 10:29:58;;;;;;;0.70;0.60;;;;;;;26.52;53.23;100944.13;4945415;29;20040;-66
2023/07/14 10:32:29;;;;;;;0.88;0.60;;;;;;;27.06;49.00;100939.94;4945055;28;20047;-66
2023/07/14 10:34:59;;;;;;;;;;;;;;;26.97;51.31;100951.75;4938530;28;20159;-67
2023/07/14 10:37:31;;;;;;;3.33;0.68;;;;;;;26.57;49.88;100940.00;4939130;28;19918;-66
2023/07/14 10:40:27;;;;;;;1.90;0.85;;;;;;;26.53;50.82;100947.66;4937333;28;20138;-65
2023/07/14 10:43:10;;;;;;;2.67;0.68;;;;;;;26.59;51.34;100949.38;4923170;29;20071;-64
2023/07/14 10:45:58;;;;;;;1.15;0.77;;;;;;;26.83;52.93;100941.28;4943395;28;20215;-66
2023/07/14 10:48:33;;;;;;;1.23;0.63;;;;;;;26.93;50.77;100945.59;4868557;29;20146;-63
2023/07/14 10:51:27;;;;;;;0.90;0.85;;;;;;;27.11;51.04;100933.78;4890661;29;20059;-68
2023/07/14 10:54:19;;;;;;;1.10;0.70;;;;;;;27.47;49.42;100928.25;4881372;29;20119;-65
2023/07/14 10:57:03;;;;;;;3.95;0.80;;;;;;;27.54;49.54;100914.09;4885544;29;20139;-63
2023/07/14 10:59:40;;;;;;;0.38;0.35;;;;;;;27.93;49.33;100920.59;4888766;29;20959;-67
2023/07/14 11:02:32;;;;;;;1.63;0.80;;;;;;;28.07;47.79;100925.47;4888198;29;20036;-67
2023/07/14 11:05:00;;;;;;;;;;;;;;;27.51;48.37;100912.25;4891509;29;20096;-68
2023/07/14 11:07:33;;;;;;;0.65;0.50;;;;;;;28.16;49.73;100917.91;4888760;29;19958;-67
2023/07/14 11:10:00;;;;;;;0.75;0.60;;;;;;;28.64;47.26;100917.97;4889210;29;20060;-67
2023/07/14 11:12:39;;;;;;;1.25;0.80;;;;;;;29.12;47.36;100925.00;4894779;29;20131;-63
2023/07/14 11:15:16;;;;;;;0.77;0.60;;;;;;;29.14;47.10;100922.53;4887843;29;20621;-67
2023/07/14 11:18:09;;;;;;;1.67;0.85;;;;;;;29.10;45.97;100921.94;4897407;29;20044;-67
2023/07/14 11:20:45;;;;;;;1.13;0.75;;;;;;;29.84;46.35;100921.56;4901090;29;20036;-65
2023/07/14 11:23:26;;;;;;;1.83;0.93;;;;;;;30.08;46.04;100926.97;4886916;29;20060;-66
2023/07/14 11:26:24;;;;;;;1.73;0.98;;;;;;;30.27;44.98;100920.69;4949044;28;20543;-66
2023/07/14 11:28:59;;;;;;;0.95;0.70;;;;;;;29.88;47.53;100922.13;4949444;28;20042;-65
2023/07/14 11:31:29;;;;;;;0.50;0.50;;;;;;;29.49;45.47;100917.88;4963997;28;20073;-66
2023/07/14 11:34:10;;;;;;;1.38;0.75;;;;;;;29.00;45.83;100912.91;4966486;28;20034;-64
2023/07/14 11:36:48;;;;;;;0.60;0.50;;;;;;;28.71;47.33;100909.28;4951896;28;20039;-63
2023/07/14 11:39:24;;;;;;;1.40;0.90;;;;;;;28.36;46.85;100904.25;4983321;28;20037;-63
2023/07/14 11:41:51;;;;;;;1.20;0.68;;;;;;;28.01;46.87;100908.72;4994575;28;20023;-64
2023/07/14 11:44:20;;;;;;;2.47;1.17;;;;;;;27.86;48.00;100901.53;4957273;28;20034;-65